ENRH weather

Oslo Heliport, Rikshospitalet
Oslo, Oslo, Norway

Public forecast

Using degrees Celsius for public forecast. Weather courtesy of forecast.io.

Closest aviation weather report (METAR) to Oslo Heliport, Rikshospitalet

Closest report is Oslo, Fornebu Airport, 4.3 nm (8.0 km) SW. Retrieved 2020/07/07 01:20 UTC (32 minutes ago):

ENFB 070120Z AUTO 32011KT 9999NDV NCD 08/04 Q1006 W///S4

Closest aviation forecast (TAF) to Oslo Heliport, Rikshospitalet

Closest forecast is Oslo Gardermoen Airport, 18.7 nm (34.6 km) NE. Retrieved 2020-07-07 00:58 UTC (54 minutes ago):

TAF ENGM 062300Z 0700/0724 33008KT 9999 FEW040 BKN080 TEMPO 0710/0721 SHRA BKN020 SCT025CB PROB40 TEMPO 0711/0717 4000 TSRA